createdAt,value
2023-05-14T00:00:22.318Z,16.61
2023-05-14T00:01:22.175Z,16.51
2023-05-14T00:02:22.205Z,16.40
2023-05-14T00:03:22.307Z,16.43
2023-05-14T00:04:22.310Z,16.43
2023-05-14T00:05:22.217Z,16.47
2023-05-14T00:06:22.244Z,16.54
2023-05-14T00:07:22.256Z,16.63
2023-05-14T00:08:22.219Z,16.58
2023-05-14T00:09:22.264Z,16.64
2023-05-14T00:10:22.387Z,16.68
2023-05-14T00:11:22.350Z,16.70
2023-05-14T00:12:22.401Z,16.78
2023-05-14T00:13:22.489Z,16.77
2023-05-14T00:14:22.467Z,16.78
2023-05-14T00:15:22.407Z,16.79
2023-05-14T00:16:22.527Z,16.75
2023-05-14T00:17:22.553Z,16.70
2023-05-14T00:18:22.597Z,16.64
2023-05-14T00:19:22.660Z,16.63
2023-05-14T00:20:23.451Z,16.70
2023-05-14T00:21:22.726Z,16.70
2023-05-14T00:22:22.722Z,16.74
2023-05-14T00:23:22.742Z,16.77
2023-05-14T00:24:23.091Z,16.75
2023-05-14T00:25:22.739Z,16.77
2023-05-14T00:26:22.750Z,16.77
2023-05-14T00:27:23.672Z,16.78
2023-05-14T00:28:22.753Z,16.79
2023-05-14T00:29:22.819Z,16.74
2023-05-14T00:30:22.981Z,16.57
2023-05-14T00:31:22.921Z,16.47
2023-05-14T00:32:23.087Z,16.40
2023-05-14T00:33:22.952Z,16.40
2023-05-14T00:34:22.955Z,16.24
2023-05-14T00:35:23.034Z,16.23
2023-05-14T00:36:23.039Z,16.32
2023-05-14T00:37:23.071Z,16.24
2023-05-14T00:38:23.178Z,16.32
2023-05-14T00:39:23.141Z,16.29
2023-05-14T00:40:23.412Z,16.32
2023-05-14T00:41:23.215Z,16.40
2023-05-14T00:42:23.160Z,16.41
2023-05-14T00:43:23.183Z,16.50
2023-05-14T00:44:23.277Z,16.53
2023-05-14T00:45:23.248Z,16.58
2023-05-14T00:46:23.464Z,16.56
2023-05-14T00:47:23.386Z,16.54
2023-05-14T00:48:23.416Z,16.54
2023-05-14T00:49:23.419Z,16.56
2023-05-14T00:50:23.904Z,16.57
2023-05-14T00:51:23.480Z,16.63
2023-05-14T00:52:23.502Z,16.47
2023-05-14T00:53:23.556Z,16.46
2023-05-14T00:54:23.658Z,16.51
2023-05-14T00:55:23.606Z,16.57
2023-05-14T00:56:23.622Z,16.57
2023-05-14T00:57:23.652Z,16.47
2023-05-14T00:58:23.630Z,16.50
2023-05-14T00:59:23.694Z,16.44
2023-05-14T01:00:23.935Z,16.40
2023-05-14T01:01:23.766Z,16.40
2023-05-14T01:02:23.763Z,16.37
2023-05-14T01:03:23.810Z,16.43
2023-05-14T01:04:23.825Z,16.49
2023-05-14T01:05:23.788Z,16.49
2023-05-14T01:06:23.827Z,16.54
2023-05-14T01:07:23.845Z,16.58
2023-05-14T01:08:23.856Z,16.61
2023-05-14T01:09:23.878Z,16.58
2023-05-14T01:10:24.127Z,16.57
2023-05-14T01:11:23.879Z,16.57
2023-05-14T01:12:23.900Z,16.54
2023-05-14T01:13:23.874Z,16.51
2023-05-14T01:14:23.920Z,16.53
2023-05-14T01:15:24.009Z,16.57
2023-05-14T01:16:23.970Z,16.51
2023-05-14T01:17:24.292Z,16.49
2023-05-14T01:18:24.068Z,16.50
2023-05-14T01:19:24.032Z,16.54
2023-05-14T01:20:24.347Z,16.56
2023-05-14T01:21:24.058Z,16.58
2023-05-14T01:22:24.059Z,16.57
2023-05-14T01:23:24.059Z,16.64
2023-05-14T01:24:24.155Z,16.67
2023-05-14T01:25:24.171Z,16.66
2023-05-14T01:26:24.201Z,16.68
2023-05-14T01:27:24.723Z,16.67
2023-05-14T01:28:24.255Z,16.66
2023-05-14T01:29:24.337Z,16.63
2023-05-14T01:30:24.677Z,16.64
2023-05-14T01:31:24.323Z,16.67
2023-05-14T01:32:24.343Z,16.43
2023-05-14T01:33:24.331Z,16.41
2023-05-14T01:34:24.332Z,16.50
2023-05-14T01:35:24.394Z,16.51
2023-05-14T01:36:24.370Z,16.50
2023-05-14T01:37:24.388Z,16.46
2023-05-14T01:38:24.416Z,16.47
2023-05-14T01:39:25.420Z,16.41
2023-05-14T01:40:24.816Z,16.41
2023-05-14T01:41:24.568Z,16.43
2023-05-14T01:42:24.599Z,16.50
2023-05-14T01:43:24.668Z,16.50
2023-05-14T01:44:24.695Z,16.57
2023-05-14T01:45:24.738Z,16.57
2023-05-14T01:46:24.722Z,16.61
2023-05-14T01:47:24.799Z,16.56
2023-05-14T01:48:24.780Z,16.56
2023-05-14T01:49:24.847Z,16.56
2023-05-14T01:50:25.044Z,16.53
2023-05-14T01:51:24.894Z,16.34
2023-05-14T01:52:24.933Z,16.47
2023-05-14T01:53:24.915Z,16.20
2023-05-14T01:54:24.944Z,16.34
2023-05-14T01:55:24.985Z,16.43
2023-05-14T01:56:25.000Z,16.34
2023-05-14T01:57:25.076Z,16.44
2023-05-14T01:58:25.073Z,16.47
2023-05-14T01:59:25.105Z,16.47
2023-05-14T02:00:25.369Z,16.47
2023-05-14T02:01:25.156Z,16.53
2023-05-14T02:02:25.203Z,16.41
2023-05-14T02:03:25.511Z,16.46
2023-05-14T02:04:25.174Z,16.39
2023-05-14T02:05:25.198Z,16.24
2023-05-14T02:06:25.222Z,16.34
2023-05-14T02:07:25.272Z,16.17
2023-05-14T02:08:25.305Z,16.29
2023-05-14T02:09:25.429Z,16.32
2023-05-14T02:10:25.585Z,16.29
2023-05-14T02:11:25.445Z,16.27
2023-05-14T02:12:25.490Z,16.34
2023-05-14T02:13:25.514Z,16.16
2023-05-14T02:14:26.292Z,16.02
2023-05-14T02:15:26.001Z,16.11
2023-05-14T02:16:25.825Z,15.91
2023-05-14T02:17:25.754Z,16.02
2023-05-14T02:18:25.858Z,15.91
2023-05-14T02:19:25.760Z,15.98
2023-05-14T02:20:25.964Z,15.88
2023-05-14T02:21:25.772Z,15.84
2023-05-14T02:22:25.768Z,15.92
2023-05-14T02:23:37.949Z,15.92
2023-05-14T02:24:27.608Z,15.96
2023-05-14T02:25:25.841Z,15.94
2023-05-14T02:26:25.813Z,15.91
2023-05-14T02:27:25.772Z,16.02
2023-05-14T02:28:25.782Z,16.05
2023-05-14T02:29:25.746Z,16.08
2023-05-14T02:30:25.900Z,16.08
2023-05-14T02:31:25.819Z,16.11
2023-05-14T02:32:25.788Z,16.09
2023-05-14T02:33:25.800Z,16.06
2023-05-14T02:34:25.794Z,15.99
2023-05-14T02:35:25.852Z,16.04
2023-05-14T02:36:25.902Z,16.05
2023-05-14T02:37:25.918Z,16.06
2023-05-14T02:38:25.984Z,15.92
2023-05-14T02:39:26.017Z,16.01
2023-05-14T02:40:26.171Z,16.09
2023-05-14T02:41:26.036Z,16.09
2023-05-14T02:42:26.107Z,15.96
2023-05-14T02:43:26.145Z,15.94
2023-05-14T02:44:26.145Z,15.95
2023-05-14T02:45:26.143Z,15.99
2023-05-14T02:46:26.136Z,16.05
2023-05-14T02:47:26.214Z,16.08
2023-05-14T02:48:26.207Z,16.13
2023-05-14T02:49:26.282Z,16.16
2023-05-14T02:50:26.424Z,16.22
2023-05-14T02:51:26.303Z,16.29
2023-05-14T02:52:26.386Z,16.33
2023-05-14T02:53:26.409Z,16.40
2023-05-14T02:54:26.506Z,16.43
2023-05-14T02:55:26.624Z,16.39
2023-05-14T02:56:26.586Z,16.44
2023-05-14T02:57:26.618Z,16.44
2023-05-14T02:58:28.450Z,16.49
2023-05-14T02:59:26.731Z,16.51
2023-05-14T03:00:26.819Z,16.53
2023-05-14T03:01:26.868Z,16.56
2023-05-14T03:02:26.967Z,16.58
2023-05-14T03:03:26.910Z,16.58
2023-05-14T03:04:26.923Z,16.57
2023-05-14T03:05:26.991Z,16.50
2023-05-14T03:06:27.094Z,16.50
2023-05-14T03:07:27.073Z,16.50
2023-05-14T03:08:27.137Z,16.54
2023-05-14T03:09:27.184Z,16.50
2023-05-14T03:10:27.264Z,16.41
2023-05-14T03:11:34.888Z,16.40
2023-05-14T03:12:27.331Z,16.41
2023-05-14T03:13:27.236Z,16.44
2023-05-14T03:14:27.261Z,16.46
2023-05-14T03:15:27.234Z,16.26
2023-05-14T03:16:27.285Z,16.26
2023-05-14T03:17:27.235Z,16.32
2023-05-14T03:18:27.234Z,16.36
2023-05-14T03:19:27.204Z,16.37
2023-05-14T03:20:27.210Z,16.36
2023-05-14T03:21:27.163Z,16.40
2023-05-14T03:22:27.164Z,16.33
2023-05-14T03:23:27.181Z,16.29
2023-05-14T03:24:27.219Z,16.22
2023-05-14T03:25:27.183Z,16.19
2023-05-14T03:26:27.226Z,16.08
2023-05-14T03:27:27.260Z,16.12
2023-05-14T03:28:27.294Z,16.09
2023-05-14T03:29:27.388Z,16.17
2023-05-14T03:30:27.448Z,16.20
2023-05-14T03:31:27.517Z,16.26
2023-05-14T03:32:27.490Z,16.26
2023-05-14T03:33:27.482Z,16.29
2023-05-14T03:34:27.526Z,16.32
2023-05-14T03:35:27.545Z,16.34
2023-05-14T03:36:27.536Z,16.36
2023-05-14T03:37:27.592Z,16.39
2023-05-14T03:38:27.619Z,16.43
2023-05-14T03:39:27.651Z,16.19
2023-05-14T03:40:27.631Z,16.05
2023-05-14T03:41:27.676Z,16.12
2023-05-14T03:42:27.727Z,16.05
2023-05-14T03:43:27.744Z,16.09
2023-05-14T03:44:27.788Z,16.15
2023-05-14T03:45:27.834Z,16.17
2023-05-14T03:46:27.786Z,16.23
2023-05-14T03:47:27.855Z,16.22
2023-05-14T03:48:28.109Z,16.23
2023-05-14T03:49:27.980Z,16.24
2023-05-14T03:50:28.009Z,16.23
2023-05-14T03:51:28.057Z,16.20
2023-05-14T03:52:28.137Z,16.19
2023-05-14T03:53:28.167Z,16.20
2023-05-14T03:54:28.230Z,16.26
2023-05-14T03:55:28.263Z,16.23
2023-05-14T03:56:28.344Z,15.81
2023-05-14T03:57:28.370Z,16.01
2023-05-14T03:58:28.398Z,16.06
2023-05-14T03:59:28.424Z,16.09
2023-05-14T04:00:36.046Z,16.06
2023-05-14T04:01:28.455Z,16.11
2023-05-14T04:02:28.528Z,16.13
2023-05-14T04:03:28.546Z,16.16
2023-05-14T04:04:28.549Z,16.16
2023-05-14T04:05:28.419Z,16.05
2023-05-14T04:06:28.412Z,15.92
2023-05-14T04:07:28.411Z,15.75
2023-05-14T04:08:28.402Z,15.69
2023-05-14T04:09:28.380Z,15.62
2023-05-14T04:10:28.387Z,15.72
2023-05-14T04:11:28.381Z,15.72
2023-05-14T04:12:28.356Z,15.50
2023-05-14T04:13:28.363Z,15.69
2023-05-14T04:14:28.417Z,15.82
2023-05-14T04:15:28.514Z,15.86
2023-05-14T04:16:28.960Z,15.89
2023-05-14T04:17:28.654Z,15.91
2023-05-14T04:18:28.673Z,15.94
2023-05-14T04:19:29.067Z,15.88
2023-05-14T04:20:28.718Z,15.96
2023-05-14T04:21:28.809Z,16.01
2023-05-14T04:22:28.782Z,16.09
2023-05-14T04:23:28.839Z,16.12
2023-05-14T04:24:28.851Z,16.16
2023-05-14T04:25:28.891Z,16.20
2023-05-14T04:26:28.972Z,16.15
2023-05-14T04:27:29.025Z,16.13
2023-05-14T04:28:29.136Z,16.16
2023-05-14T04:29:29.149Z,16.16
2023-05-14T04:30:29.143Z,16.20
2023-05-14T04:31:29.145Z,16.17
2023-05-14T04:32:29.173Z,16.23
2023-05-14T04:33:29.240Z,16.24
2023-05-14T04:34:29.215Z,16.24
2023-05-14T04:35:29.238Z,16.27
2023-05-14T04:36:29.384Z,16.29
2023-05-14T04:37:29.235Z,16.36
2023-05-14T04:38:29.281Z,16.34
2023-05-14T04:39:29.305Z,16.27
2023-05-14T04:40:29.268Z,16.34
2023-05-14T04:41:29.295Z,16.26
2023-05-14T04:42:29.365Z,16.32
2023-05-14T04:43:29.379Z,16.27
2023-05-14T04:44:29.385Z,16.29
2023-05-14T04:45:29.437Z,16.22
2023-05-14T04:46:29.685Z,16.05
2023-05-14T04:47:29.649Z,16.02
2023-05-14T04:48:29.621Z,16.02
2023-05-14T04:49:29.677Z,15.92
2023-05-14T04:50:29.693Z,15.95
2023-05-14T04:51:29.734Z,16.04
2023-05-14T04:52:29.697Z,16.09
2023-05-14T04:53:29.747Z,16.16
2023-05-14T04:54:29.853Z,16.22
2023-05-14T04:55:29.809Z,16.23
2023-05-14T04:56:29.886Z,16.27
2023-05-14T04:57:29.965Z,16.17
2023-05-14T04:58:30.783Z,16.17
2023-05-14T04:59:30.298Z,16.05
2023-05-14T05:00:30.002Z,16.16
2023-05-14T05:01:30.036Z,16.13
2023-05-14T05:02:30.053Z,16.04
2023-05-14T05:03:30.120Z,16.12
2023-05-14T05:04:30.147Z,16.17
2023-05-14T05:05:30.200Z,16.22
2023-05-14T05:06:30.243Z,16.27
2023-05-14T05:07:30.253Z,16.30
2023-05-14T05:08:30.272Z,16.34
2023-05-14T05:09:30.282Z,16.40
2023-05-14T05:10:30.346Z,16.40
2023-05-14T05:11:30.375Z,16.43
2023-05-14T05:12:30.385Z,16.27
2023-05-14T05:13:30.360Z,16.36
2023-05-14T05:14:30.528Z,16.37
2023-05-14T05:15:30.395Z,16.41
2023-05-14T05:16:30.451Z,16.44
2023-05-14T05:17:30.555Z,16.43
2023-05-14T05:18:30.612Z,16.33
2023-05-14T05:19:42.410Z,16.29
2023-05-14T05:20:31.590Z,16.32
2023-05-14T05:21:30.621Z,16.27
2023-05-14T05:22:30.572Z,16.30
2023-05-14T05:23:30.585Z,16.32
2023-05-14T05:24:30.591Z,16.36
2023-05-14T05:25:30.558Z,16.40
2023-05-14T05:26:30.549Z,16.41
2023-05-14T05:27:30.902Z,16.46
2023-05-14T05:28:30.575Z,16.47
2023-05-14T05:29:30.617Z,16.47
2023-05-14T05:30:30.681Z,16.27
2023-05-14T05:31:30.754Z,16.29
2023-05-14T05:32:30.827Z,16.36
2023-05-14T05:33:30.846Z,16.40
2023-05-14T05:34:30.869Z,16.43
2023-05-14T05:35:30.862Z,16.34
2023-05-14T05:36:30.904Z,16.43
2023-05-14T05:37:30.972Z,16.50
2023-05-14T05:38:30.933Z,16.56
2023-05-14T05:39:31.011Z,16.56
2023-05-14T05:40:31.026Z,16.58
2023-05-14T05:41:31.108Z,16.57
2023-05-14T05:42:31.120Z,16.57
2023-05-14T05:43:31.221Z,16.56
2023-05-14T05:44:31.242Z,16.32
2023-05-14T05:45:31.213Z,16.15
2023-05-14T05:46:31.293Z,16.05
2023-05-14T05:47:31.386Z,15.89
2023-05-14T05:48:31.416Z,15.74
2023-05-14T05:49:31.465Z,15.92
2023-05-14T05:50:31.470Z,15.95
2023-05-14T05:51:31.526Z,16.09
2023-05-14T05:52:31.635Z,16.11
2023-05-14T05:53:31.634Z,16.23
2023-05-14T05:54:31.786Z,16.20
2023-05-14T05:55:31.774Z,16.16
2023-05-14T05:56:31.773Z,16.23
2023-05-14T05:57:31.820Z,16.29
2023-05-14T05:58:31.865Z,16.34
2023-05-14T05:59:31.856Z,16.43
2023-05-14T06:00:31.899Z,16.49
2023-05-14T06:01:31.936Z,16.56
2023-05-14T06:02:32.239Z,16.61
2023-05-14T06:03:32.001Z,16.54
2023-05-14T06:04:32.046Z,16.51
2023-05-14T06:05:32.057Z,16.37
2023-05-14T06:06:32.091Z,16.44
2023-05-14T06:07:32.101Z,16.34
2023-05-14T06:08:32.179Z,16.43
2023-05-14T06:09:32.155Z,16.49
2023-05-14T06:10:32.173Z,16.47
2023-05-14T06:11:32.219Z,16.40
2023-05-14T06:12:32.233Z,16.50
2023-05-14T06:13:32.253Z,16.57
2023-05-14T06:14:32.353Z,16.53
2023-05-14T06:15:32.366Z,16.50
2023-05-14T06:16:32.495Z,16.58
2023-05-14T06:17:32.512Z,16.64
2023-05-14T06:18:32.540Z,16.67
2023-05-14T06:19:32.572Z,16.72
2023-05-14T06:20:32.601Z,16.60
2023-05-14T06:21:32.642Z,16.61
2023-05-14T06:22:32.637Z,16.70
2023-05-14T06:23:32.686Z,16.70
2023-05-14T06:24:32.750Z,16.78
2023-05-14T06:25:32.748Z,16.84
2023-05-14T06:26:32.798Z,16.88
2023-05-14T06:27:32.861Z,16.91
2023-05-14T06:28:32.909Z,16.58
2023-05-14T06:29:32.972Z,16.43
2023-05-14T06:30:33.035Z,16.60
2023-05-14T06:31:33.098Z,16.68
2023-05-14T06:32:33.134Z,16.79
2023-05-14T06:33:33.085Z,16.88
2023-05-14T06:34:33.100Z,16.94
2023-05-14T06:35:33.091Z,16.95
2023-05-14T06:36:33.111Z,17.02
2023-05-14T06:37:33.164Z,16.87
2023-05-14T06:38:33.200Z,16.67
2023-05-14T06:39:33.309Z,16.56
2023-05-14T06:40:33.244Z,16.56
2023-05-14T06:41:33.425Z,16.51
2023-05-14T06:42:33.347Z,16.54
2023-05-14T06:43:33.429Z,16.54
2023-05-14T06:44:33.470Z,16.43
2023-05-14T06:45:33.498Z,16.60
2023-05-14T06:46:33.499Z,16.67
2023-05-14T06:47:33.617Z,16.77
2023-05-14T06:48:33.563Z,16.81
2023-05-14T06:49:33.619Z,16.82
2023-05-14T06:50:33.591Z,17.01
2023-05-14T06:51:33.575Z,17.11
2023-05-14T06:52:33.574Z,16.92
2023-05-14T06:53:33.583Z,16.68
2023-05-14T06:54:33.600Z,16.72
2023-05-14T06:55:33.633Z,16.98
2023-05-14T06:56:33.659Z,17.16
2023-05-14T06:57:33.630Z,17.29
2023-05-14T06:58:33.671Z,17.43
2023-05-14T06:59:33.721Z,17.54
2023-05-14T07:00:33.729Z,17.63
2023-05-14T07:01:33.826Z,17.74
2023-05-14T07:02:33.934Z,17.82
2023-05-14T07:03:33.917Z,17.73
2023-05-14T07:04:33.883Z,17.60
2023-05-14T07:05:33.849Z,17.53
2023-05-14T07:06:33.832Z,17.63
2023-05-14T07:07:33.908Z,17.75
2023-05-14T07:08:33.889Z,17.82
2023-05-14T07:09:33.957Z,17.91
2023-05-14T07:10:33.947Z,17.86
2023-05-14T07:11:33.934Z,17.94
2023-05-14T07:12:33.954Z,18.02
2023-05-14T07:13:33.980Z,18.09
2023-05-14T07:14:34.048Z,18.16
2023-05-14T07:15:34.003Z,18.22
2023-05-14T07:16:34.129Z,18.26
2023-05-14T07:17:34.087Z,18.30
2023-05-14T07:18:34.104Z,18.08
2023-05-14T07:19:34.132Z,18.05
2023-05-14T07:20:34.120Z,17.77
2023-05-14T07:21:34.205Z,17.61
2023-05-14T07:22:34.269Z,17.49
2023-05-14T07:23:34.357Z,17.47
2023-05-14T07:24:34.380Z,17.61
2023-05-14T07:25:34.444Z,17.78
2023-05-14T07:26:34.484Z,17.92
2023-05-14T07:27:34.548Z,18.04
2023-05-14T07:28:34.545Z,18.17
2023-05-14T07:29:34.667Z,18.20
2023-05-14T07:30:34.687Z,18.19
2023-05-14T07:31:34.821Z,18.13
2023-05-14T07:32:34.808Z,18.26
2023-05-14T07:33:34.732Z,18.20
2023-05-14T07:34:34.834Z,18.20
2023-05-14T07:35:34.865Z,18.08
2023-05-14T07:36:35.796Z,18.23
2023-05-14T07:37:34.886Z,18.39
2023-05-14T07:38:34.876Z,18.49
2023-05-14T07:39:34.928Z,18.58
2023-05-14T07:40:35.008Z,18.58
2023-05-14T07:41:35.065Z,18.49
2023-05-14T07:42:36.931Z,18.56
2023-05-14T07:43:35.179Z,18.64
2023-05-14T07:44:35.128Z,18.68
2023-05-14T07:45:35.134Z,18.61
2023-05-14T07:46:35.155Z,18.72
2023-05-14T07:47:35.235Z,18.88
2023-05-14T07:48:35.204Z,18.75
2023-05-14T07:49:35.306Z,18.78
2023-05-14T07:50:35.247Z,18.68
2023-05-14T07:51:35.278Z,18.46
2023-05-14T07:52:35.286Z,18.57
2023-05-14T07:53:35.271Z,18.71
2023-05-14T07:54:35.294Z,18.70
2023-05-14T07:55:35.382Z,18.44
2023-05-14T07:56:35.305Z,18.23
2023-05-14T07:57:35.296Z,18.53
2023-05-14T07:58:35.428Z,18.68
2023-05-14T07:59:35.539Z,18.88
2023-05-14T08:00:35.550Z,19.04
2023-05-14T08:01:37.108Z,19.16
2023-05-14T08:02:35.672Z,19.22
2023-05-14T08:03:35.636Z,19.22
2023-05-14T08:04:35.637Z,19.30
2023-05-14T08:05:35.550Z,19.32
2023-05-14T08:06:35.561Z,19.37
2023-05-14T08:07:35.567Z,19.39
2023-05-14T08:08:35.552Z,19.53
2023-05-14T08:09:35.563Z,19.66
2023-05-14T08:10:35.557Z,19.77
2023-05-14T08:11:35.504Z,19.85
2023-05-14T08:12:35.506Z,19.91
2023-05-14T08:13:35.469Z,19.99
2023-05-14T08:14:35.593Z,19.87
2023-05-14T08:15:35.464Z,19.52
2023-05-14T08:16:35.511Z,19.71
2023-05-14T08:17:35.482Z,19.63
2023-05-14T08:18:35.438Z,19.73
2023-05-14T08:19:35.460Z,19.81
2023-05-14T08:20:35.467Z,19.64
2023-05-14T08:21:35.452Z,19.78
2023-05-14T08:22:35.436Z,19.95
2023-05-14T08:23:35.489Z,19.81
2023-05-14T08:24:35.465Z,19.54
2023-05-14T08:25:35.417Z,19.67
2023-05-14T08:26:35.415Z,19.57
2023-05-14T08:27:35.437Z,19.73
2023-05-14T08:28:35.400Z,19.71
2023-05-14T08:29:35.432Z,19.87
2023-05-14T08:30:35.415Z,20.08
2023-05-14T08:31:35.427Z,20.21
2023-05-14T08:32:35.429Z,20.23
2023-05-14T08:33:35.381Z,20.40
2023-05-14T08:34:35.371Z,20.28
2023-05-14T08:35:35.357Z,20.22
2023-05-14T08:36:35.367Z,20.36
2023-05-14T08:37:35.303Z,20.16
2023-05-14T08:38:35.342Z,20.46
2023-05-14T08:39:35.357Z,20.54
2023-05-14T08:40:35.304Z,20.74
2023-05-14T08:41:35.313Z,20.94
2023-05-14T08:42:35.307Z,20.50
2023-05-14T08:43:35.302Z,20.91
2023-05-14T08:44:35.358Z,21.13
2023-05-14T08:45:35.279Z,21.40
2023-05-14T08:46:35.326Z,21.58
2023-05-14T08:47:35.340Z,21.67
2023-05-14T08:48:35.666Z,21.57
2023-05-14T08:49:35.342Z,21.68
2023-05-14T08:50:35.253Z,21.49
2023-05-14T08:51:35.255Z,21.43
2023-05-14T08:52:35.245Z,21.57
2023-05-14T08:53:35.228Z,21.78
2023-05-14T08:54:35.247Z,22.05
2023-05-14T08:55:35.247Z,22.34
2023-05-14T08:56:35.172Z,22.47
2023-05-14T08:57:35.201Z,22.56
2023-05-14T08:58:35.290Z,22.66
2023-05-14T08:59:35.320Z,22.64
2023-05-14T09:00:35.384Z,22.71
2023-05-14T09:01:35.450Z,22.68
2023-05-14T09:02:35.457Z,22.56
2023-05-14T09:03:35.545Z,22.59
2023-05-14T09:04:35.525Z,22.43
2023-05-14T09:05:35.524Z,22.25
2023-05-14T09:06:35.524Z,22.40
2023-05-14T09:07:35.661Z,22.01
2023-05-14T09:08:35.602Z,22.40
2023-05-14T09:09:35.683Z,22.16
2023-05-14T09:10:35.656Z,21.90
2023-05-14T09:11:35.685Z,21.57
2023-05-14T09:12:36.768Z,21.66
2023-05-14T09:13:35.837Z,21.66
2023-05-14T09:14:35.846Z,21.77
2023-05-14T09:15:35.924Z,21.93
2023-05-14T09:16:35.991Z,22.05
2023-05-14T09:17:36.008Z,22.01
2023-05-14T09:18:36.039Z,22.11
2023-05-14T09:19:36.036Z,22.27
2023-05-14T09:20:36.060Z,22.25
2023-05-14T09:21:36.091Z,22.25
2023-05-14T09:22:36.105Z,22.38
2023-05-14T09:23:36.183Z,22.11
2023-05-14T09:24:36.192Z,22.12
2023-05-14T09:25:36.218Z,22.18
2023-05-14T09:26:36.274Z,22.36
2023-05-14T09:27:36.320Z,22.49
2023-05-14T09:28:36.358Z,22.60
2023-05-14T09:29:36.430Z,22.42
2023-05-14T09:30:36.434Z,22.45
2023-05-14T09:31:36.503Z,22.53
2023-05-14T09:32:36.515Z,22.57
2023-05-14T09:33:36.565Z,22.42
2023-05-14T09:34:36.584Z,22.50
2023-05-14T09:35:36.622Z,22.52
2023-05-14T09:36:36.656Z,22.49
2023-05-14T09:37:36.721Z,22.60
2023-05-14T09:38:36.734Z,22.70
2023-05-14T09:39:36.832Z,22.31
2023-05-14T09:40:36.791Z,22.02
2023-05-14T09:41:36.863Z,21.88
2023-05-14T09:42:36.884Z,21.94
2023-05-14T09:43:36.903Z,21.64
2023-05-14T09:44:36.960Z,21.47
2023-05-14T09:45:36.945Z,21.72
2023-05-14T09:46:37.015Z,21.87
2023-05-14T09:47:37.195Z,21.84
2023-05-14T09:48:37.211Z,21.87
2023-05-14T09:49:37.203Z,21.93
2023-05-14T09:50:37.190Z,21.74
2023-05-14T09:51:37.263Z,21.97
2023-05-14T09:52:37.371Z,22.04
2023-05-14T09:53:37.345Z,22.18
2023-05-14T09:54:37.420Z,22.15
2023-05-14T09:55:37.462Z,22.04
2023-05-14T09:56:37.527Z,21.97
2023-05-14T09:57:37.554Z,21.85
2023-05-14T09:58:37.581Z,22.02
2023-05-14T09:59:37.717Z,21.68
2023-05-14T10:00:37.733Z,21.78
2023-05-14T10:01:37.909Z,21.95
2023-05-14T10:02:38.204Z,22.01
2023-05-14T10:03:38.270Z,22.09
2023-05-14T10:04:38.015Z,22.16
2023-05-14T10:05:37.967Z,21.88
2023-05-14T10:06:38.006Z,21.98
2023-05-14T10:07:38.039Z,21.56
2023-05-14T10:08:38.068Z,21.73
2023-05-14T10:09:38.101Z,21.70
2023-05-14T10:10:38.138Z,21.87
2023-05-14T10:11:38.239Z,21.94
2023-05-14T10:12:38.244Z,21.97
2023-05-14T10:13:38.270Z,22.08
2023-05-14T10:14:38.362Z,21.73
2023-05-14T10:15:38.324Z,21.78
2023-05-14T10:16:38.484Z,21.63
2023-05-14T10:17:38.420Z,21.64
2023-05-14T10:18:38.430Z,21.74
2023-05-14T10:19:38.468Z,21.78
2023-05-14T10:20:38.490Z,21.85
2023-05-14T10:21:38.533Z,21.68
2023-05-14T10:22:38.551Z,21.77
2023-05-14T10:23:38.599Z,21.30
2023-05-14T10:24:38.613Z,21.23
2023-05-14T10:25:38.635Z,21.22
2023-05-14T10:26:38.671Z,21.06
2023-05-14T10:27:38.727Z,20.91
2023-05-14T10:28:38.788Z,20.63
2023-05-14T10:29:38.811Z,20.50
2023-05-14T10:30:38.820Z,20.90
2023-05-14T10:31:38.921Z,21.02
2023-05-14T10:32:38.892Z,21.28
2023-05-14T10:33:38.860Z,21.40
2023-05-14T10:34:38.981Z,21.42
2023-05-14T10:35:38.916Z,21.60
2023-05-14T10:36:38.996Z,21.74
2023-05-14T10:37:39.004Z,21.85
2023-05-14T10:38:39.087Z,21.85
2023-05-14T10:39:39.566Z,21.49
2023-05-14T10:40:39.077Z,21.56
2023-05-14T10:41:39.161Z,21.74
2023-05-14T10:42:39.183Z,21.88
2023-05-14T10:43:39.194Z,21.91
2023-05-14T10:44:39.262Z,22.01
2023-05-14T10:45:39.281Z,21.84
2023-05-14T10:46:39.369Z,21.94
2023-05-14T10:47:39.391Z,21.95
2023-05-14T10:48:39.339Z,22.04
2023-05-14T10:49:43.296Z,21.98
2023-05-14T10:50:39.433Z,21.64
2023-05-14T10:51:39.516Z,21.73
2023-05-14T10:52:39.428Z,21.80
2023-05-14T10:53:39.347Z,21.74
2023-05-14T10:54:39.346Z,21.78
2023-05-14T10:55:39.341Z,21.85
2023-05-14T10:56:39.329Z,21.63
2023-05-14T10:57:39.351Z,21.70
2023-05-14T10:58:39.308Z,21.76
2023-05-14T10:59:39.386Z,21.73
2023-05-14T11:00:39.300Z,21.66
2023-05-14T11:01:39.293Z,21.63
2023-05-14T11:02:39.376Z,21.43
2023-05-14T11:03:39.294Z,21.60
2023-05-14T11:04:39.309Z,21.56
2023-05-14T11:05:39.296Z,21.52
2023-05-14T11:06:39.271Z,21.61
2023-05-14T11:07:39.289Z,21.73
2023-05-14T11:08:39.319Z,21.47
2023-05-14T11:09:39.368Z,21.54
2023-05-14T11:10:39.457Z,21.63
2023-05-14T11:11:39.435Z,21.43
2023-05-14T11:12:39.452Z,21.64
2023-05-14T11:13:39.540Z,21.74
2023-05-14T11:14:39.532Z,21.77
2023-05-14T11:15:39.590Z,21.84
2023-05-14T11:16:39.669Z,21.49
2023-05-14T11:17:39.706Z,21.52
2023-05-14T11:18:39.737Z,21.63
2023-05-14T11:19:39.701Z,21.53
2023-05-14T11:20:39.747Z,21.60
2023-05-14T11:21:39.813Z,21.72
2023-05-14T11:22:39.794Z,21.78
2023-05-14T11:23:39.811Z,21.87
2023-05-14T11:24:39.869Z,21.84
2023-05-14T11:25:39.946Z,21.70
2023-05-14T11:26:39.954Z,21.78
2023-05-14T11:27:39.968Z,21.81
2023-05-14T11:28:40.016Z,21.88
2023-05-14T11:29:40.037Z,21.97
2023-05-14T11:30:40.059Z,21.90
2023-05-14T11:31:40.062Z,21.95
2023-05-14T11:32:40.118Z,21.91
2023-05-14T11:33:40.148Z,21.97
2023-05-14T11:34:40.086Z,21.72
2023-05-14T11:35:40.238Z,21.81
2023-05-14T11:36:40.171Z,21.83
2023-05-14T11:37:40.208Z,21.93
2023-05-14T11:38:40.248Z,21.98
2023-05-14T11:39:40.280Z,22.04
2023-05-14T11:40:40.292Z,22.12
2023-05-14T11:41:40.354Z,22.11
2023-05-14T11:42:40.397Z,22.12
2023-05-14T11:43:40.374Z,22.21
2023-05-14T11:44:40.423Z,22.19
2023-05-14T11:45:40.535Z,22.15
2023-05-14T11:46:40.598Z,22.19
2023-05-14T11:47:40.593Z,22.16
2023-05-14T11:48:40.649Z,21.95
2023-05-14T11:49:40.713Z,22.07
2023-05-14T11:50:40.730Z,22.02
2023-05-14T11:51:40.778Z,21.94
2023-05-14T11:52:40.810Z,22.08
2023-05-14T11:53:40.789Z,22.08
2023-05-14T11:54:40.866Z,22.02
2023-05-14T11:55:40.906Z,22.01
2023-05-14T11:56:40.920Z,22.04
2023-05-14T11:57:40.978Z,22.07
2023-05-14T11:58:40.991Z,22.04
2023-05-14T11:59:40.987Z,21.93
2023-05-14T12:00:41.047Z,21.90
2023-05-14T12:01:41.123Z,21.90
2023-05-14T12:02:41.236Z,21.90
2023-05-14T12:03:41.452Z,21.54
2023-05-14T12:04:41.263Z,21.38
2023-05-14T12:05:41.269Z,21.54
2023-05-14T12:06:41.391Z,21.66
2023-05-14T12:07:41.354Z,21.35
2023-05-14T12:08:41.365Z,21.56
2023-05-14T12:09:43.023Z,21.64
2023-05-14T12:10:41.408Z,21.57
2023-05-14T12:11:41.368Z,21.33
2023-05-14T12:12:41.387Z,21.45
2023-05-14T12:13:41.353Z,21.54
2023-05-14T12:14:41.358Z,21.60
2023-05-14T12:15:41.394Z,21.63
2023-05-14T12:16:41.752Z,21.67
2023-05-14T12:17:41.428Z,21.70
2023-05-14T12:18:41.393Z,21.77
2023-05-14T12:19:41.336Z,21.78
2023-05-14T12:20:41.314Z,21.90
2023-05-14T12:21:41.298Z,21.94
2023-05-14T12:22:41.656Z,21.98
2023-05-14T12:23:41.307Z,22.00
2023-05-14T12:24:41.313Z,22.01
2023-05-14T12:25:41.270Z,21.97
2023-05-14T12:26:41.265Z,21.80
2023-05-14T12:27:41.278Z,21.90
2023-05-14T12:28:41.274Z,21.61
2023-05-14T12:29:41.234Z,21.76
2023-05-14T12:30:41.290Z,21.72
2023-05-14T12:31:41.362Z,21.77
2023-05-14T12:32:41.407Z,21.78
2023-05-14T12:33:41.199Z,21.77
2023-05-14T12:34:41.216Z,21.80
2023-05-14T12:35:41.227Z,21.81
2023-05-14T12:36:41.190Z,21.72
2023-05-14T12:37:41.195Z,21.63
2023-05-14T12:38:41.293Z,21.66
2023-05-14T12:39:41.228Z,21.49
2023-05-14T12:40:41.255Z,21.42
2023-05-14T12:41:41.267Z,21.33
2023-05-14T12:42:41.183Z,21.38
2023-05-14T12:43:41.194Z,21.39
2023-05-14T12:44:41.150Z,21.42
2023-05-14T12:45:41.171Z,21.40
2023-05-14T12:46:41.208Z,21.39
2023-05-14T12:47:41.218Z,21.16
2023-05-14T12:48:41.213Z,20.87
2023-05-14T12:49:41.141Z,20.71
2023-05-14T12:50:41.145Z,20.44
2023-05-14T12:51:41.152Z,20.23
2023-05-14T12:52:41.101Z,20.22